Aviation Services » Terminal Aerodrome Forecasts Saturday, February 25, 2017
 Terminal Aerodrome Forecasts (TAF)

TAF NVSC 241000Z 2412/2512 VRB02KT 8000 -TSRA FEW008 BKN015 OVC040
INTER 2412/2424 8000 -TSRA BKN010 FEW020CB OVC035=

TAF NVSG 241000Z 2412/2512 VRB02KT 9999 FEW010 BKN020 OVC100
INTER 2412/2418 7000 TSRA FEW008 BKN016 FEW020CB=

TAF NVSS 241000Z 2412/2512 32005KT 9999 FEW010 BKN020 OVC100
INTER 2412/2418 7000 TSRA FEW008 BKN016 FEW020CB=

TAF NVSL 241000Z 2412/2512 11005KT 9999 SCT020 BKN040
PROB40 INTER 2412/2418 9000 -SHRA BKN018=

TAF NVVV 241000Z 2412/2512 11005KT 9999 SCT020
PROB40 INTER 2412/2418 9000 -SHRA BKN018=

TAF NVVW 241000Z 2406/2506 15005KT 9999 SCT020
PROB30 INTER 2412/2418 9000 -SHRA BKN018=

TAF NVVA 241000Z 2406/2506 12006KT 9999 SCT020
PROB30 INTER 2412/2418 9000 -SHRA BKN018=